createdAt,value
2023-03-05T00:00:55.073Z,101325.94
2023-03-05T00:03:21.828Z,101332.06
2023-03-05T00:05:48.603Z,101322.41
2023-03-05T00:08:15.358Z,101317.97
2023-03-05T00:10:42.002Z,101318.28
2023-03-05T00:13:08.665Z,101316.09
2023-03-05T00:15:41.376Z,101306.13
2023-03-05T00:18:08.333Z,101312.25
2023-03-05T00:20:36.046Z,101314.50
2023-03-05T00:23:02.812Z,101315.09
2023-03-05T00:25:29.629Z,101307.88
2023-03-05T00:27:56.276Z,101308.72
2023-03-05T00:30:22.976Z,101299.06
2023-03-05T00:32:49.724Z,101309.06
2023-03-05T00:35:16.582Z,101309.88
2023-03-05T00:37:43.264Z,101299.13
2023-03-05T00:40:10.786Z,101296.34
2023-03-05T00:42:38.754Z,101294.69
2023-03-05T00:45:07.392Z,101288.66
2023-03-05T00:47:34.758Z,101293.03
2023-03-05T00:50:02.088Z,101290.00
2023-03-05T00:52:29.235Z,101287.56
2023-03-05T00:54:56.044Z,101285.38
2023-03-05T00:57:22.891Z,101275.97
2023-03-05T00:59:49.759Z,101278.75
2023-03-05T01:02:16.426Z,101274.06
2023-03-05T01:04:45.970Z,101265.56
2023-03-05T01:07:13.517Z,101269.94
2023-03-05T01:09:40.347Z,101266.91
2023-03-05T01:12:07.503Z,101268.34
2023-03-05T01:14:35.795Z,101260.63
2023-03-05T01:17:03.260Z,101259.84
2023-03-05T01:19:30.141Z,101255.69
2023-03-05T01:21:56.942Z,101250.75
2023-03-05T01:24:23.818Z,101256.28
2023-03-05T01:26:50.725Z,101254.91
2023-03-05T01:29:17.536Z,101248.59
2023-03-05T01:31:44.616Z,101245.81
2023-03-05T01:34:11.525Z,101240.88
2023-03-05T01:36:38.505Z,101235.09
2023-03-05T01:39:05.349Z,101236.50
2023-03-05T01:41:33.842Z,101234.28
2023-03-05T01:44:01.087Z,101226.28
2023-03-05T01:46:32.312Z,101216.59
2023-03-05T01:49:04.391Z,101215.50
2023-03-05T01:51:40.740Z,101207.78
2023-03-05T01:54:10.721Z,101207.78
2023-03-05T01:56:39.648Z,101207.25
2023-03-05T01:59:06.384Z,101205.59
2023-03-05T02:01:41.091Z,101201.19
2023-03-05T02:04:11.470Z,101202.31
2023-03-05T02:06:40.308Z,101193.50
2023-03-05T02:09:07.319Z,101182.72
2023-03-05T02:11:35.084Z,101187.41
2023-03-05T02:14:03.318Z,101185.78
2023-03-05T02:16:36.020Z,101179.44
2023-03-05T02:19:05.844Z,101175.84
2023-03-05T02:21:39.870Z,101178.06
2023-03-05T02:24:06.989Z,101175.91
2023-03-05T02:26:33.850Z,101166.47
2023-03-05T02:29:03.074Z,101175.91
2023-03-05T02:31:31.148Z,101165.13
2023-03-05T02:33:58.299Z,101170.13
2023-03-05T02:36:26.175Z,101169.28
2023-03-05T02:38:56.979Z,101169.28
2023-03-05T02:41:24.765Z,101160.47
2023-03-05T02:43:52.437Z,101160.47
2023-03-05T02:46:22.392Z,101160.75
2023-03-05T02:48:50.269Z,101159.66
2023-03-05T02:51:17.571Z,101156.34
2023-03-05T02:53:45.879Z,101162.16
2023-03-05T02:56:13.034Z,101157.47
2023-03-05T02:58:39.832Z,101158.88
2023-03-05T03:01:06.582Z,101158.88
2023-03-05T03:03:33.623Z,101148.41
2023-03-05T03:06:00.381Z,101149.50
2023-03-05T03:08:27.457Z,101145.63
2023-03-05T03:10:56.426Z,101144.28
2023-03-05T03:13:25.167Z,101149.50
2023-03-05T03:16:01.825Z,101144.53
2023-03-05T03:18:28.567Z,101142.34
2023-03-05T03:20:55.240Z,101139.84
2023-03-05T03:23:21.916Z,101136.25
2023-03-05T03:25:48.670Z,101131.84
2023-03-05T03:28:18.075Z,101122.44
2023-03-05T03:30:44.966Z,101129.38
2023-03-05T03:33:12.004Z,101122.44
2023-03-05T03:35:39.109Z,101124.38
2023-03-05T03:38:06.134Z,101122.44
2023-03-05T03:40:32.956Z,101115.84
2023-03-05T03:42:59.874Z,101115.03
2023-03-05T03:45:26.574Z,101114.19
2023-03-05T03:47:53.203Z,101103.97
2023-03-05T03:50:21.626Z,101110.34
2023-03-05T03:52:48.302Z,101107.03
2023-03-05T03:55:15.033Z,101099.84
2023-03-05T03:57:41.721Z,101099.84
2023-03-05T04:00:10.985Z,101101.53
2023-03-05T04:02:41.622Z,101103.72
2023-03-05T04:05:08.864Z,101099.84
2023-03-05T04:07:35.565Z,101095.44
2023-03-05T04:10:02.498Z,101094.91
2023-03-05T04:12:29.120Z,101083.88
2023-03-05T04:14:55.976Z,101088.88
2023-03-05T04:17:22.729Z,101084.44
2023-03-05T04:19:49.448Z,101086.09
2023-03-05T04:22:17.686Z,101089.97
2023-03-05T04:24:44.738Z,101081.69
2023-03-05T04:27:11.619Z,101076.44
2023-03-05T04:29:38.785Z,101078.69
2023-03-05T04:32:06.620Z,101078.41
2023-03-05T04:34:33.674Z,101073.97
2023-03-05T04:37:00.514Z,101066.28
2023-03-05T04:39:27.572Z,101060.22
2023-03-05T04:41:54.419Z,101059.94
2023-03-05T04:44:23.273Z,101058.00
2023-03-05T04:46:50.162Z,101055.22
2023-03-05T04:49:16.903Z,101051.94
2023-03-05T04:51:43.623Z,101053.06
2023-03-05T04:54:10.436Z,101046.69
2023-03-05T04:56:37.309Z,101046.69
2023-03-05T04:59:04.276Z,101037.38
2023-03-05T05:01:31.061Z,101030.50
2023-03-05T05:03:57.650Z,101037.66
2023-03-05T05:06:24.320Z,101038.78
2023-03-05T05:08:50.955Z,101038.22
2023-03-05T05:11:18.166Z,101036.03
2023-03-05T05:13:44.816Z,101027.72
2023-03-05T05:16:11.815Z,101031.59
2023-03-05T05:18:38.452Z,101034.94
2023-03-05T05:21:13.358Z,101033.28
2023-03-05T05:23:40.406Z,101023.06
2023-03-05T05:26:08.644Z,101034.13
2023-03-05T05:28:35.942Z,101035.53
2023-03-05T05:31:07.764Z,101024.19
2023-03-05T05:33:34.656Z,101026.13
2023-03-05T05:36:06.394Z,101036.34
2023-03-05T05:38:33.793Z,101038.59
2023-03-05T05:41:10.428Z,101027.53
2023-03-05T05:43:37.388Z,101023.97
2023-03-05T05:46:06.795Z,101028.34
2023-03-05T05:48:34.447Z,101028.41
2023-03-05T05:51:09.128Z,101021.78
2023-03-05T05:53:36.507Z,101020.94
2023-03-05T05:56:07.498Z,101024.81
2023-03-05T05:58:34.517Z,101012.66
2023-03-05T06:01:01.454Z,101016.53
2023-03-05T06:03:28.454Z,101020.94
2023-03-05T06:05:55.715Z,101017.66
2023-03-05T06:08:22.409Z,101013.56
2023-03-05T06:10:55.457Z,101016.31
2023-03-05T06:13:22.291Z,101014.06
2023-03-05T06:15:57.462Z,101019.06
2023-03-05T06:18:24.460Z,101015.47
2023-03-05T06:21:02.648Z,101011.91
2023-03-05T06:23:29.402Z,101016.88
2023-03-05T06:25:59.441Z,101012.47
2023-03-05T06:28:27.676Z,101010.81
2023-03-05T06:31:05.657Z,101020.22
2023-03-05T06:33:35.017Z,101014.16
2023-03-05T06:36:09.488Z,101015.28
2023-03-05T06:38:36.973Z,101014.47
2023-03-05T06:41:25.251Z,101010.59
2023-03-05T06:43:52.192Z,101003.13
2023-03-05T06:46:19.851Z,101010.88
2023-03-05T06:48:47.729Z,101005.66
2023-03-05T06:51:23.187Z,101004.81
2023-03-05T06:53:50.448Z,101001.75
2023-03-05T06:56:18.993Z,100995.72
2023-03-05T06:58:47.661Z,100996.53
2023-03-05T07:01:15.496Z,101005.41
2023-03-05T07:03:42.872Z,100993.84
2023-03-05T07:06:12.592Z,100985.56
2023-03-05T07:08:39.556Z,100981.66
2023-03-05T07:11:20.619Z,100972.88
2023-03-05T07:13:48.320Z,100972.88
2023-03-05T07:16:20.841Z,100977.59
2023-03-05T07:18:48.507Z,100961.72
2023-03-05T07:21:21.004Z,100962.88
2023-03-05T07:23:48.773Z,100968.75
2023-03-05T07:26:15.952Z,100967.94
2023-03-05T07:28:43.461Z,100977.31
2023-03-05T07:31:19.780Z,100983.97
2023-03-05T07:33:48.730Z,100981.19
2023-03-05T07:36:17.200Z,100980.66
2023-03-05T07:38:43.952Z,100977.88
2023-03-05T07:41:19.884Z,100977.88
2023-03-05T07:43:48.384Z,100977.38
2023-03-05T07:46:20.294Z,100972.16
2023-03-05T07:48:47.590Z,100979.59
2023-03-05T07:51:19.737Z,100972.16
2023-03-05T07:53:48.189Z,100974.59
2023-03-05T07:56:20.572Z,100976.84
2023-03-05T07:58:47.292Z,100976.00
2023-03-05T08:01:15.191Z,100967.47
2023-03-05T08:03:45.795Z,100969.13
2023-03-05T08:06:12.935Z,100966.38
2023-03-05T08:08:39.812Z,100976.59
2023-03-05T08:11:11.731Z,100972.47
2023-03-05T08:13:39.469Z,100966.97
2023-03-05T08:16:14.702Z,100966.66
2023-03-05T08:18:42.021Z,100957.84
2023-03-05T08:21:19.386Z,100948.75
2023-03-05T08:23:46.214Z,100955.91
2023-03-05T08:26:19.180Z,100949.56
2023-03-05T08:28:46.225Z,100942.97
2023-03-05T08:31:14.551Z,100947.91
2023-03-05T08:33:41.535Z,100955.66
2023-03-05T08:36:09.535Z,100950.69
2023-03-05T08:38:36.555Z,100949.31
2023-03-05T08:41:04.147Z,100947.41
2023-03-05T08:43:31.363Z,100949.31
2023-03-05T08:46:00.209Z,100949.91
2023-03-05T08:48:28.255Z,100946.03
2023-03-05T08:50:56.357Z,100939.69
2023-03-05T08:53:23.242Z,100939.69
2023-03-05T08:55:57.083Z,100934.19
2023-03-05T08:58:24.415Z,100934.19
2023-03-05T09:00:51.302Z,100936.94
2023-03-05T09:03:18.827Z,100932.56
2023-03-05T09:05:45.857Z,100931.44
2023-03-05T09:08:12.619Z,100928.72
2023-03-05T09:10:42.098Z,100922.91
2023-03-05T09:13:09.664Z,100928.41
2023-03-05T09:15:37.069Z,100922.91
2023-03-05T09:18:04.095Z,100917.69
2023-03-05T09:20:30.964Z,100921.28
2023-03-05T09:22:57.692Z,100909.41
2023-03-05T09:25:24.453Z,100911.66
2023-03-05T09:27:51.138Z,100911.34
2023-03-05T09:30:18.051Z,100905.00
2023-03-05T09:32:44.862Z,100904.16
2023-03-05T09:35:11.977Z,100900.31
2023-03-05T09:37:38.959Z,100896.38
2023-03-05T09:40:06.216Z,100899.97
2023-03-05T09:42:38.564Z,100883.69
2023-03-05T09:45:30.077Z,100885.94
2023-03-05T09:47:59.442Z,100879.91
2023-03-05T09:51:01.350Z,100887.34
2023-03-05T09:53:38.879Z,100881.81
2023-03-05T09:56:12.747Z,100887.34
2023-03-05T09:58:39.654Z,100879.34
2023-03-05T10:01:10.493Z,100884.84
2023-03-05T10:03:50.109Z,100879.66
2023-03-05T10:06:55.745Z,100869.72
2023-03-05T10:09:54.365Z,100869.72
2023-03-05T10:12:43.880Z,100863.38
2023-03-05T10:15:16.521Z,100866.97
2023-03-05T10:18:07.520Z,100864.19
2023-03-05T10:20:42.005Z,100859.00
2023-03-05T10:23:08.748Z,100857.06
2023-03-05T10:25:54.799Z,100857.06
2023-03-05T10:28:55.252Z,100847.91
2023-03-05T10:31:35.231Z,100855.06
2023-03-05T10:34:27.991Z,100848.84
2023-03-05T10:37:21.057Z,100852.69
2023-03-05T10:40:00.660Z,100848.63
2023-03-05T10:42:49.509Z,100854.94
2023-03-05T10:45:24.538Z,100845.41
2023-03-05T10:48:12.711Z,100846.31
2023-03-05T10:50:46.360Z,100844.00
2023-03-05T10:53:31.635Z,100836.66
2023-03-05T10:56:01.793Z,100835.44
2023-03-05T10:58:28.683Z,100836.97
2023-03-05T11:01:10.149Z,100836.88
2023-03-05T11:03:53.535Z,100829.22
2023-03-05T11:06:34.230Z,100826.59
2023-03-05T11:09:32.618Z,100825.91
2023-03-05T11:12:14.306Z,100825.19
2023-03-05T11:14:45.645Z,100827.47
2023-03-05T11:17:30.718Z,100820.97
2023-03-05T11:20:18.308Z,100817.59
2023-03-05T11:23:02.037Z,100814.09
2023-03-05T11:25:28.847Z,100815.66
2023-03-05T11:27:57.173Z,100808.47
2023-03-05T11:30:32.729Z,100803.47
2023-03-05T11:33:22.596Z,100800.91
2023-03-05T11:35:51.380Z,100795.47
2023-03-05T11:38:26.038Z,100803.69
2023-03-05T11:40:55.495Z,100794.75
2023-03-05T11:43:23.757Z,100786.03
2023-03-05T11:46:03.115Z,100782.38
2023-03-05T11:48:36.066Z,100772.94
2023-03-05T11:51:20.682Z,100769.34
2023-03-05T11:53:51.612Z,100759.09
2023-03-05T11:56:26.915Z,100755.19
2023-03-05T11:59:12.433Z,100749.66
2023-03-05T12:01:59.876Z,100746.16
2023-03-05T12:04:28.025Z,100746.16
2023-03-05T12:07:00.543Z,100738.38
2023-03-05T12:09:27.213Z,100737.41
2023-03-05T12:12:09.667Z,100736.59
2023-03-05T12:14:49.061Z,100728.41
2023-03-05T12:17:31.607Z,100717.22
2023-03-05T12:20:13.421Z,100712.50
2023-03-05T12:22:42.483Z,100713.31
2023-03-05T12:25:27.426Z,100707.78
2023-03-05T12:27:54.279Z,100700.81
2023-03-05T12:30:35.949Z,100702.63
2023-03-05T12:33:04.099Z,100699.06
2023-03-05T12:35:41.181Z,100690.75
2023-03-05T12:38:39.246Z,100683.44
2023-03-05T12:41:25.817Z,100686.41
2023-03-05T12:44:06.337Z,100673.66
2023-03-05T12:46:38.903Z,100673.03
2023-03-05T12:49:27.038Z,100663.81
2023-03-05T12:51:56.248Z,100663.31
2023-03-05T12:54:39.680Z,100658.44
2023-03-05T12:57:16.625Z,100650.06
2023-03-05T12:59:51.348Z,100645.34
2023-03-05T13:02:40.820Z,100645.41
2023-03-05T13:05:33.239Z,100642.84
2023-03-05T13:08:18.471Z,100636.00
2023-03-05T13:10:52.738Z,100632.25
2023-03-05T13:13:21.491Z,100625.06
2023-03-05T13:15:50.678Z,100630.59
2023-03-05T13:18:23.351Z,100626.81
2023-03-05T13:21:04.703Z,100616.75
2023-03-05T13:23:32.535Z,100614.97
2023-03-05T13:26:03.831Z,100608.97
2023-03-05T13:28:32.248Z,100615.13
2023-03-05T13:31:02.633Z,100600.34
2023-03-05T13:33:35.189Z,100603.41
2023-03-05T13:36:02.894Z,100596.25
2023-03-05T13:38:57.153Z,100593.66
2023-03-05T13:41:26.150Z,100587.31
2023-03-05T13:43:57.627Z,100589.44
2023-03-05T13:46:24.270Z,100579.16
2023-03-05T13:48:51.109Z,100563.53
2023-03-05T13:51:17.849Z,100563.53
2023-03-05T13:53:44.956Z,100561.06
2023-03-05T13:56:17.766Z,100559.78
2023-03-05T13:58:55.914Z,100559.63
2023-03-05T14:01:44.072Z,100550.16
2023-03-05T14:04:13.608Z,100553.28
2023-03-05T14:06:54.921Z,100543.19
2023-03-05T14:09:33.104Z,100549.41
2023-03-05T14:12:07.325Z,100544.56
2023-03-05T14:14:37.591Z,100532.81
2023-03-05T14:17:39.971Z,100531.78
2023-03-05T14:20:06.593Z,100530.31
2023-03-05T14:22:36.468Z,100523.94
2023-03-05T14:25:25.613Z,100532.59
2023-03-05T14:27:52.664Z,100522.78
2023-03-05T14:30:22.148Z,100525.84
2023-03-05T14:32:50.140Z,100514.63
2023-03-05T14:35:19.792Z,100519.66
2023-03-05T14:37:49.682Z,100508.41
2023-03-05T14:40:23.677Z,100517.88
2023-03-05T14:42:57.467Z,100504.47
2023-03-05T14:45:36.182Z,100512.97
2023-03-05T14:48:04.885Z,100506.78
2023-03-05T14:50:38.125Z,100497.31
2023-03-05T14:53:10.745Z,100498.66
2023-03-05T14:55:38.539Z,100495.22
2023-03-05T14:58:13.254Z,100486.56
2023-03-05T15:00:40.410Z,100486.56
2023-03-05T15:03:07.608Z,100482.16
2023-03-05T15:05:34.453Z,100474.50
2023-03-05T15:08:01.254Z,100476.47
2023-03-05T15:10:28.016Z,100474.50
2023-03-05T15:12:54.587Z,100476.94
2023-03-05T15:15:22.980Z,100470.41
2023-03-05T15:17:57.491Z,100473.53
2023-03-05T15:20:29.032Z,100471.91
2023-03-05T15:22:56.213Z,100466.34
2023-03-05T15:25:25.592Z,100466.69
2023-03-05T15:27:52.680Z,100462.75
2023-03-05T15:30:25.217Z,100459.66
2023-03-05T15:32:54.305Z,100453.47
2023-03-05T15:35:22.086Z,100451.00
2023-03-05T15:37:48.920Z,100444.34
2023-03-05T15:40:16.315Z,100450.88
2023-03-05T15:42:43.079Z,100451.84
2023-03-05T15:45:10.125Z,100444.16
2023-03-05T15:47:36.876Z,100439.63
2023-03-05T15:50:03.797Z,100438.81
2023-03-05T15:52:30.571Z,100434.91
2023-03-05T15:54:57.227Z,100433.25
2023-03-05T15:57:24.022Z,100430.81
2023-03-05T15:59:50.705Z,100434.06
2023-03-05T16:02:17.455Z,100437.16
2023-03-05T16:04:44.334Z,100427.22
2023-03-05T16:07:11.614Z,100424.59
2023-03-05T16:09:46.392Z,100425.28
2023-03-05T16:12:18.474Z,100420.50
2023-03-05T16:14:46.063Z,100411.88
2023-03-05T16:17:13.813Z,100411.72
2023-03-05T16:19:44.419Z,100407.94
2023-03-05T16:22:11.241Z,100403.41
2023-03-05T16:24:38.290Z,100405.03
2023-03-05T16:27:05.219Z,100395.91
2023-03-05T16:29:32.978Z,100385.13
2023-03-05T16:32:02.655Z,100395.06
2023-03-05T16:34:29.417Z,100391.03
2023-03-05T16:36:56.135Z,100381.72
2023-03-05T16:39:23.151Z,100384.84
2023-03-05T16:41:50.482Z,100379.75
2023-03-05T16:44:17.299Z,100381.88
2023-03-05T16:46:49.219Z,100377.81
2023-03-05T16:49:16.805Z,100379.94
2023-03-05T16:51:43.425Z,100376.50
2023-03-05T16:54:10.348Z,100372.75
2023-03-05T16:56:37.380Z,100376.16
2023-03-05T16:59:04.606Z,100373.56
2023-03-05T17:01:31.816Z,100371.13
2023-03-05T17:04:00.093Z,100370.47
2023-03-05T17:06:29.298Z,100365.41
2023-03-05T17:08:56.714Z,100363.78
2023-03-05T17:11:25.698Z,100357.53
2023-03-05T17:13:52.681Z,100362.47
2023-03-05T17:16:20.414Z,100367.72
2023-03-05T17:18:47.952Z,100363.28
2023-03-05T17:21:15.561Z,100356.72
2023-03-05T17:23:42.824Z,100352.66
2023-03-05T17:26:13.008Z,100356.59
2023-03-05T17:28:40.100Z,100356.28
2023-03-05T17:31:06.793Z,100353.50
2023-03-05T17:33:35.241Z,100353.19
2023-03-05T17:36:02.570Z,100354.97
2023-03-05T17:38:29.716Z,100356.09
2023-03-05T17:40:56.683Z,100352.19
2023-03-05T17:43:23.786Z,100357.09
2023-03-05T17:45:50.689Z,100350.56
2023-03-05T17:48:17.631Z,100350.56
2023-03-05T17:50:45.153Z,100353.00
2023-03-05T17:53:12.494Z,100353.31
2023-03-05T17:55:40.023Z,100354.63
2023-03-05T17:58:06.682Z,100353.50
2023-03-05T18:00:33.754Z,100352.19
2023-03-05T18:03:00.590Z,100349.06
2023-03-05T18:05:28.559Z,100344.69
2023-03-05T18:07:55.948Z,100349.56
2023-03-05T18:10:24.958Z,100348.59
2023-03-05T18:12:52.150Z,100350.88
2023-03-05T18:15:20.307Z,100353.19
2023-03-05T18:17:47.193Z,100355.63
2023-03-05T18:20:30.028Z,100342.38
2023-03-05T18:22:58.546Z,100341.41
2023-03-05T18:25:31.068Z,100346.00
2023-03-05T18:28:02.678Z,100338.63
2023-03-05T18:30:29.951Z,100344.19
2023-03-05T18:32:56.673Z,100336.03
2023-03-05T18:35:24.442Z,100333.25
2023-03-05T18:37:51.553Z,100329.50
2023-03-05T18:40:21.958Z,100324.94
2023-03-05T18:42:49.769Z,100326.88
2023-03-05T18:45:18.602Z,100324.47
2023-03-05T18:47:46.872Z,100328.38
2023-03-05T18:50:18.475Z,100320.84
2023-03-05T18:52:45.770Z,100320.34
2023-03-05T18:55:17.542Z,100314.19
2023-03-05T18:57:44.322Z,100311.06
2023-03-05T19:00:15.988Z,100309.47
2023-03-05T19:02:42.814Z,100308.63
2023-03-05T19:05:10.213Z,100303.91
2023-03-05T19:07:38.067Z,100302.25
2023-03-05T19:10:07.555Z,100303.91
2023-03-05T19:12:35.290Z,100303.09
2023-03-05T19:15:22.558Z,100296.06
2023-03-05T19:17:49.687Z,100308.78
2023-03-05T19:20:17.463Z,100306.16
2023-03-05T19:22:58.628Z,100300.31
2023-03-05T19:25:25.584Z,100297.03
2023-03-05T19:27:52.686Z,100296.06
2023-03-05T19:30:19.844Z,100285.25
2023-03-05T19:32:47.243Z,100298.19
2023-03-05T19:35:16.375Z,100286.09
2023-03-05T19:37:45.879Z,100283.31
2023-03-05T19:40:14.321Z,100290.16
2023-03-05T19:42:41.063Z,100278.44
2023-03-05T19:45:08.725Z,100282.34
2023-03-05T19:47:35.781Z,100291.16
2023-03-05T19:50:02.848Z,100295.69
2023-03-05T19:52:30.212Z,100281.34
2023-03-05T19:54:57.046Z,100276.94
2023-03-05T19:57:23.936Z,100276.47
2023-03-05T19:59:53.979Z,100277.63
2023-03-05T20:02:21.902Z,100277.31
2023-03-05T20:04:49.473Z,100280.38
2023-03-05T20:07:16.347Z,100269.59
2023-03-05T20:09:43.077Z,100275.34
2023-03-05T20:12:10.394Z,100260.16
2023-03-05T20:14:37.474Z,100264.25
2023-03-05T20:17:04.303Z,100263.91
2023-03-05T20:19:30.941Z,100252.66
2023-03-05T20:21:57.640Z,100266.50
2023-03-05T20:24:24.493Z,100248.06
2023-03-05T20:26:51.387Z,100253.97
2023-03-05T20:29:18.867Z,100254.59
2023-03-05T20:31:47.026Z,100250.03
2023-03-05T20:34:16.965Z,100245.16
2023-03-05T20:36:44.100Z,100239.75
2023-03-05T20:39:10.932Z,100242.53
2023-03-05T20:41:39.597Z,100245.78
2023-03-05T20:44:07.702Z,100241.25
2023-03-05T20:46:39.425Z,100243.19
2023-03-05T20:49:26.598Z,100234.06
2023-03-05T20:51:53.743Z,100227.53
2023-03-05T20:54:20.702Z,100228.50
2023-03-05T20:56:47.897Z,100233.22
2023-03-05T20:59:14.726Z,100224.41
2023-03-05T21:01:41.719Z,100213.66
2023-03-05T21:04:08.933Z,100211.53
2023-03-05T21:06:36.980Z,100212.03
2023-03-05T21:09:04.063Z,100202.56
2023-03-05T21:11:31.915Z,100200.78
2023-03-05T21:13:59.315Z,100204.03
2023-03-05T21:16:27.238Z,100198.63
2023-03-05T21:18:56.027Z,100202.41
2023-03-05T21:21:23.496Z,100197.50
2023-03-05T21:23:50.343Z,100185.09
2023-03-05T21:26:17.239Z,100190.97
2023-03-05T21:28:44.025Z,100189.16
2023-03-05T21:31:16.989Z,100188.03
2023-03-05T21:33:44.323Z,100176.13
2023-03-05T21:36:11.086Z,100174.16
2023-03-05T21:38:37.886Z,100166.66
2023-03-05T21:41:05.405Z,100173.53
2023-03-05T21:43:33.322Z,100175.16
2023-03-05T21:46:02.100Z,100175.16
2023-03-05T21:48:29.451Z,100156.91
2023-03-05T21:50:57.223Z,100159.66
2023-03-05T21:53:24.200Z,100147.56
2023-03-05T21:56:31.040Z,100149.03
2023-03-05T21:58:57.936Z,100140.38
2023-03-05T22:01:24.957Z,100139.44
2023-03-05T22:03:52.150Z,100131.09
2023-03-05T22:06:19.827Z,100126.38
2023-03-05T22:08:47.316Z,100132.69
2023-03-05T22:11:17.393Z,100122.59
2023-03-05T22:13:44.143Z,100121.78
2023-03-05T22:16:11.049Z,100122.94
2023-03-05T22:18:38.004Z,100115.41
2023-03-05T22:21:05.727Z,100112.31
2023-03-05T22:23:34.597Z,100112.31
2023-03-05T22:26:04.428Z,100114.63
2023-03-05T22:28:32.580Z,100106.31
2023-03-05T22:30:59.437Z,100108.38
2023-03-05T22:33:27.485Z,100111.97
2023-03-05T22:35:54.328Z,100102.03
2023-03-05T22:38:21.977Z,100105.94
2023-03-05T22:40:50.224Z,100102.16
2023-03-05T22:43:18.318Z,100097.28
2023-03-05T22:45:45.387Z,100094.34
2023-03-05T22:48:12.734Z,100096.75
2023-03-05T22:50:41.132Z,100088.50
2023-03-05T22:53:08.351Z,100089.66
2023-03-05T22:55:39.376Z,100083.25
2023-03-05T22:58:06.042Z,100083.41
2023-03-05T23:00:32.867Z,100074.16
2023-03-05T23:02:59.790Z,100075.78
2023-03-05T23:05:26.714Z,100073.78
2023-03-05T23:07:53.529Z,100071.53
2023-03-05T23:10:25.627Z,100061.97
2023-03-05T23:12:54.793Z,100064.44
2023-03-05T23:15:39.548Z,100061.03
2023-03-05T23:18:09.320Z,100058.16
2023-03-05T23:20:37.358Z,100057.19
2023-03-05T23:23:04.527Z,100056.53
2023-03-05T23:25:33.039Z,100045.31
2023-03-05T23:28:00.794Z,100055.13
2023-03-05T23:30:37.138Z,100046.84
2023-03-05T23:33:05.927Z,100054.03
2023-03-05T23:35:36.106Z,100049.66
2023-03-05T23:38:06.727Z,100049.34
2023-03-05T23:40:36.544Z,100044.44
2023-03-05T23:43:04.008Z,100039.56
2023-03-05T23:45:31.396Z,100038.94
2023-03-05T23:47:58.588Z,100034.38
2023-03-05T23:50:31.859Z,100035.03
2023-03-05T23:53:01.869Z,100033.75
2023-03-05T23:55:42.857Z,100027.53
2023-03-05T23:58:10.764Z,100024.31
